Time;durP1;ratioP1;P1;durP2;ratioP2;P2;SDS_P1;SDS_P2;PMS_P1;PMS_P2;Temp;Humidity;BMP_temperature;BMP_pressure;BME280_temperature;BME280_humidity;BME280_pressure;Samples;Min_cycle;Max_cycle;Signal;HPM_P1;HPM_P2
2023/06/14 00:02:24;;;;;;;1.47;1.37;;;15.50;37.30;14.40;95607.00;;;;5033398;28;20200;-58
2023/06/14 00:04:52;;;;;;;0.90;0.90;;;15.10;37.70;14.30;95603.00;;;;5033423;28;20215;-56
2023/06/14 00:07:19;;;;;;;0.73;0.73;;;15.10;38.00;14.40;95600.00;;;;5033351;28;20196;-56
2023/06/14 00:09:46;;;;;;;1.53;1.43;;;15.10;38.10;14.40;95605.00;;;;5033580;28;20188;-57
2023/06/14 00:12:13;;;;;;;0.70;0.70;;;15.10;38.20;14.60;95600.00;;;;5034059;28;20624;-57
2023/06/14 00:14:40;;;;;;;0.80;0.80;;;15.10;38.30;14.60;95594.00;;;;5033152;28;20208;-57
2023/06/14 00:17:08;;;;;;;0.93;0.93;;;15.20;38.00;14.50;95602.00;;;;5033447;28;20200;-57
2023/06/14 00:19:37;;;;;;;1.30;1.20;;;15.10;38.10;14.30;95598.00;;;;5033142;28;20236;-57
2023/06/14 00:22:04;;;;;;;1.17;1.17;;;15.00;38.30;14.30;95600.00;;;;5033402;28;20409;-57
2023/06/14 00:24:31;;;;;;;1.27;1.27;;;14.90;38.50;14.20;95600.00;;;;5032992;28;20216;-56
2023/06/14 00:26:59;;;;;;;2.83;1.43;;;14.90;38.50;14.20;95594.00;;;;5033085;28;20678;-56
2023/06/14 00:29:26;;;;;;;1.20;1.20;;;14.90;38.30;14.20;95595.00;;;;5033057;28;20185;-57
2023/06/14 00:31:53;;;;;;;1.03;1.03;;;14.90;38.60;14.00;95593.00;;;;5032989;28;20204;-57
2023/06/14 00:34:20;;;;;;;0.80;0.80;;;14.80;39.20;14.10;95598.00;;;;5031510;28;20236;-56
2023/06/14 00:36:48;;;;;;;1.23;1.13;;;14.80;39.30;14.00;95597.00;;;;5032935;28;20173;-57
2023/06/14 00:39:15;;;;;;;1.07;1.07;;;14.60;39.50;13.90;95602.00;;;;5032643;28;20257;-56
2023/06/14 00:41:42;;;;;;;1.30;1.30;;;14.60;39.50;14.00;95596.00;;;;5032707;28;20228;-56
2023/06/14 00:44:09;;;;;;;0.93;0.93;;;14.60;39.50;13.80;95598.00;;;;5033043;28;20296;-56
2023/06/14 00:46:36;;;;;;;1.13;1.13;;;14.60;39.50;13.80;95586.00;;;;5032792;28;20200;-56
2023/06/14 00:49:04;;;;;;;2.40;1.17;;;14.60;39.50;13.80;95596.00;;;;5032705;28;20189;-58
2023/06/14 00:51:31;;;;;;;1.03;1.00;;;14.50;39.40;13.70;95602.00;;;;5032842;28;20279;-55
2023/06/14 00:54:00;;;;;;;1.23;1.13;;;14.40;39.60;13.60;95596.00;;;;5032636;28;20181;-56
2023/06/14 00:56:27;;;;;;;0.97;0.97;;;14.40;39.90;13.70;95587.00;;;;5032846;28;20586;-56
2023/06/14 00:58:55;;;;;;;1.30;1.30;;;14.40;39.70;13.60;95590.00;;;;5032652;28;20199;-56
2023/06/14 01:01:23;;;;;;;0.70;0.70;;;14.30;39.80;13.50;95585.00;;;;5032617;28;20227;-56
2023/06/14 01:03:51;;;;;;;1.57;1.47;;;14.30;40.00;13.30;95590.00;;;;5032971;28;20215;-56
2023/06/14 01:06:32;;;;;;;1.40;1.30;;;14.20;40.20;13.40;95590.00;;;;5032477;28;20660;-56
2023/06/14 01:09:14;;;;;;;1.40;1.30;;;14.10;40.60;13.40;95590.00;;;;5032788;28;20172;-56
2023/06/14 01:11:53;;;;;;;1.07;1.07;;;14.10;40.80;13.40;95582.00;;;;5032777;28;20265;-56
2023/06/14 01:14:22;;;;;;;0.70;0.70;;;14.00;40.90;13.20;95592.00;;;;5032576;28;20721;-56
2023/06/14 01:16:52;;;;;;;36.20;1.80;;;13.90;41.00;13.30;95594.00;;;;5032446;28;20193;-56
2023/06/14 01:19:25;;;;;;;1.17;1.10;;;13.90;41.30;13.40;95595.00;;;;5033157;28;20185;-56
2023/06/14 01:21:52;;;;;;;1.33;1.33;;;14.00;40.40;13.40;95599.00;;;;5032337;28;20201;-56
2023/06/14 01:24:25;;;;;;;1.33;1.33;;;14.00;41.10;13.40;95601.00;;;;5032428;28;20209;-56
2023/06/14 01:26:56;;;;;;;1.00;1.00;;;14.00;40.00;13.40;95592.00;;;;5032783;28;20240;-56
2023/06/14 01:29:25;;;;;;;2.80;1.73;;;14.00;41.20;13.20;95596.00;;;;5032782;28;20186;-56
2023/06/14 01:31:54;;;;;;;1.30;1.10;;;13.90;41.10;12.60;95601.00;;;;5032364;28;20197;-56
2023/06/14 01:34:21;;;;;;;1.23;1.13;;;13.50;42.40;12.60;95605.00;;;;5032394;28;20560;-55
2023/06/14 01:36:51;;;;;;;0.70;0.70;;;13.40;42.70;12.80;95598.00;;;;5032572;28;20177;-56
2023/06/14 01:39:20;;;;;;;0.60;0.60;;;13.40;43.10;12.70;95602.00;;;;5032509;28;20193;-56
2023/06/14 01:41:50;;;;;;;1.00;1.00;;;13.50;42.40;12.70;95598.00;;;;5032424;28;20216;-56
2023/06/14 01:44:21;;;;;;;1.00;1.00;;;13.40;42.80;12.70;95597.00;;;;5032119;28;20216;-56
2023/06/14 01:46:49;;;;;;;1.63;1.53;;;13.50;42.90;12.70;95599.00;;;;5032421;28;20200;-56
2023/06/14 01:49:16;;;;;;;1.53;1.43;;;13.40;42.90;12.80;95602.00;;;;5032169;28;20196;-57
2023/06/14 01:51:43;;;;;;;1.00;1.00;;;13.40;43.00;12.60;95602.00;;;;5033445;28;20199;-57
2023/06/14 01:54:10;;;;;;;0.97;0.97;;;;;12.50;95598.00;;;;5035791;28;20212;-57
2023/06/14 01:56:39;;;;;;;0.97;0.97;;;;;12.50;95599.00;;;;5036011;28;20200;-57
2023/06/14 01:59:07;;;;;;;1.63;1.53;;;;;12.50;95596.00;;;;5035720;28;20193;-57
2023/06/14 02:01:34;;;;;;;3.50;1.47;;;;;12.50;95593.00;;;;5035884;28;20231;-57
2023/06/14 02:04:02;;;;;;;1.10;1.10;;;;;12.60;95601.00;;;;5035799;28;20199;-56
2023/06/14 02:06:29;;;;;;;1.73;1.63;;;;;12.50;95598.00;;;;5035881;28;20224;-57
2023/06/14 02:08:57;;;;;;;1.00;1.00;;;;;12.50;95596.00;;;;5035620;28;20671;-57
2023/06/14 02:11:25;;;;;;;0.67;0.67;;;;;12.50;95600.00;;;;5035674;28;20284;-57
2023/06/14 02:13:54;;;;;;;0.93;0.93;;;;;12.50;95598.00;;;;5035652;28;20192;-57
2023/06/14 02:16:22;;;;;;;1.50;1.40;;;;;12.60;95593.00;;;;5035368;28;20203;-61
2023/06/14 02:18:51;;;;;;;0.93;0.93;;;;;12.60;95599.00;;;;5035425;28;20204;-57
2023/06/14 02:21:18;;;;;;;1.20;1.20;;;;;12.60;95603.00;;;;5035325;28;20300;-57
2023/06/14 02:23:45;;;;;;;2.00;1.90;;;;;12.60;95599.00;;;;5035356;28;20204;-57
2023/06/14 02:26:13;;;;;;;1.00;1.00;;;;;12.60;95596.00;;;;5035184;28;20251;-56
2023/06/14 02:28:40;;;;;;;0.80;0.80;;;;;12.50;95590.00;;;;5035195;28;20656;-58
2023/06/14 02:31:09;;;;;;;1.13;1.13;;;;;12.40;95591.00;;;;5035147;28;20196;-57
2023/06/14 02:33:37;;;;;;;1.67;1.57;;;;;12.50;95595.00;;;;5035338;28;20196;-57
2023/06/14 02:36:04;;;;;;;1.40;1.30;;;;;12.40;95600.00;;;;5034959;28;20216;-57
2023/06/14 02:38:32;;;;;;;0.90;0.90;;;;;12.40;95596.00;;;;5035794;28;20200;-57
2023/06/14 02:41:01;;;;;;;1.37;1.27;;;;;12.20;95597.00;;;;5035965;28;20224;-57
2023/06/14 02:43:29;;;;;;;0.70;0.70;;;;;12.10;95597.00;;;;5035706;28;20189;-57
2023/06/14 02:45:57;;;;;;;0.80;0.80;;;;;12.00;95582.00;;;;5035276;28;20213;-57
2023/06/14 02:48:25;;;;;;;0.73;0.73;;;;;11.80;95593.00;;;;5034876;28;20200;-57
2023/06/14 02:50:53;;;;;;;0.90;0.90;;;;;11.80;95585.00;;;;5034786;28;20185;-56
2023/06/14 02:53:20;;;;;;;1.50;1.40;;;;;11.80;95586.00;;;;5035000;28;20197;-57
2023/06/14 02:55:48;;;;;;;0.80;0.80;;;;;11.80;95583.00;;;;5034636;28;20216;-56
2023/06/14 02:58:16;;;;;;;3.03;1.53;;;;;11.70;95590.00;;;;5034658;28;20204;-57
2023/06/14 03:00:43;;;;;;;0.97;0.97;;;;;11.60;95592.00;;;;5034561;28;20197;-57
2023/06/14 03:03:13;;;;;;;1.00;1.00;;;;;11.70;95593.00;;;;5033499;28;20196;-57
2023/06/14 03:05:47;;;;;;;1.37;1.33;;;;;11.60;95592.00;;;;5034654;28;20710;-57
2023/06/14 03:08:16;;;;;;;1.27;1.27;;;;;11.60;95584.00;;;;5034911;28;20191;-57
2023/06/14 03:10:44;;;;;;;1.20;1.20;;;;;11.70;95583.00;;;;5034520;28;20193;-56
2023/06/14 03:13:11;;;;;;;0.90;0.90;;;12.50;45.60;11.60;95584.00;;;;5034343;28;20251;-57
2023/06/14 03:15:41;;;;;;;1.17;1.17;;;12.40;46.10;11.60;95580.00;;;;5034432;28;20223;-56
2023/06/14 03:18:09;;;;;;;1.17;1.17;;;12.30;46.30;11.50;95580.00;;;;5033008;28;20238;-57
2023/06/14 03:20:36;;;;;;;0.97;0.97;;;12.20;46.40;11.50;95589.00;;;;5034083;28;20216;-57
2023/06/14 03:23:06;;;;;;;2.07;1.93;;;12.30;46.70;11.60;95596.00;;;;5032989;28;20532;-56
2023/06/14 03:25:35;;;;;;;1.33;1.30;;;12.30;46.50;11.70;95591.00;;;;5034515;28;20213;-57
2023/06/14 03:28:02;;;;;;;1.13;1.13;;;12.40;46.00;11.60;95597.00;;;;5032726;28;20616;-57
2023/06/14 03:30:31;;;;;;;0.90;0.90;;;12.30;46.20;11.50;95594.00;;;;5034447;28;20208;-57
2023/06/14 03:33:00;;;;;;;1.67;1.57;;;12.20;46.60;11.60;95605.00;;;;5033910;28;20216;-56
2023/06/14 03:35:28;;;;;;;1.13;1.13;;;12.20;46.70;11.50;95603.00;;;;5034069;28;20256;-56
2023/06/14 03:37:56;;;;;;;0.90;0.90;;;12.30;46.80;11.50;95608.00;;;;5033940;28;20662;-58
2023/06/14 03:40:26;;;;;;;1.77;1.67;;;12.30;47.00;11.40;95610.00;;;;5034147;28;20192;-57
2023/06/14 03:42:54;;;;;;;1.10;1.00;;;12.20;47.20;11.50;95609.00;;;;5034083;28;20272;-62
2023/06/14 03:45:21;;;;;;;1.60;1.50;;;12.20;47.00;11.40;95599.00;;;;5033938;28;20211;-58
2023/06/14 03:47:50;;;;;;;5.37;1.53;;;;;11.70;95605.00;;;;5033718;28;20189;-57
2023/06/14 03:50:19;;;;;;;0.87;0.87;;;;;11.60;95611.00;;;;5033594;28;20667;-56
2023/06/14 03:52:50;;;;;;;0.83;0.83;;;;;11.50;95614.00;;;;5033775;28;20216;-57
2023/06/14 03:55:17;;;;;;;2.17;1.97;;;;;11.60;95616.00;;;;5033872;28;20220;-57
2023/06/14 03:57:46;;;;;;;1.70;1.60;;;;;11.60;95622.00;;;;5033554;28;20599;-57
2023/06/14 04:00:15;;;;;;;1.43;1.37;;;;;11.70;95628.00;;;;5033429;28;20188;-57
2023/06/14 04:02:43;;;;;;;1.40;1.30;;;;;11.70;95620.00;;;;5033890;28;20664;-57
2023/06/14 04:05:11;;;;;;;0.80;0.80;;;;;11.50;95624.00;;;;5033353;28;20606;-57
2023/06/14 04:07:40;;;;;;;1.03;1.03;;;;;11.60;95627.00;;;;5032062;28;20553;-57
2023/06/14 04:10:08;;;;;;;3.50;1.53;;;;;11.60;95630.00;;;;5033323;28;20243;-57
2023/06/14 04:12:36;;;;;;;1.63;1.53;;;;;11.60;95633.00;;;;5033408;28;20290;-57
2023/06/14 04:15:07;;;;;;;0.87;0.87;;;;;11.80;95632.00;;;;5033400;28;20303;-57
2023/06/14 04:17:35;;;;;;;1.13;1.13;;;;;11.80;95633.00;;;;5033801;28;20185;-57
2023/06/14 04:20:04;;;;;;;1.00;1.00;;;;;12.00;95634.00;;;;5033175;28;20246;-57
2023/06/14 04:22:32;;;;;;;2.77;1.73;;;;;12.10;95634.00;;;;5033353;28;20224;-57
2023/06/14 04:25:00;;;;;;;1.10;1.10;;;;;12.20;95642.00;;;;5032814;28;20583;-57
2023/06/14 04:27:30;;;;;;;1.70;1.33;;;;;12.20;95643.00;;;;5032953;28;20220;-57
2023/06/14 04:29:59;;;;;;;1.07;1.07;;;;;12.30;95651.00;;;;5033215;28;20695;-56
2023/06/14 04:32:29;;;;;;;17.57;2.20;;;;;12.30;95653.00;;;;5032847;28;20220;-57
2023/06/14 04:34:57;;;;;;;1.13;1.07;;;;;12.40;95640.00;;;;5032528;28;20216;-57
2023/06/14 04:37:27;;;;;;;0.93;0.93;;;;;12.40;95644.00;;;;5032927;28;20220;-57
2023/06/14 04:39:55;;;;;;;1.63;1.53;;;;;12.30;95646.00;;;;5030327;28;20225;-58
2023/06/14 04:42:24;;;;;;;1.60;1.07;;;;;12.30;95646.00;;;;5028549;28;20275;-56
2023/06/14 04:44:55;;;;;;;1.30;1.30;;;;;12.20;95644.00;;;;5029870;28;20611;-56
2023/06/14 04:47:24;;;;;;;0.80;0.80;;;;;12.10;95638.00;;;;5031097;28;20200;-58
2023/06/14 04:49:53;;;;;;;1.57;1.47;;;;;12.20;95637.00;;;;5031040;28;20200;-58
2023/06/14 04:52:21;;;;;;;1.33;1.33;;;;;12.30;95645.00;;;;5030883;28;20270;-58
2023/06/14 04:54:49;;;;;;;1.03;1.03;;;;;12.40;95648.00;;;;5030739;28;20296;-58
2023/06/14 04:57:17;;;;;;;1.30;1.30;;;;;12.40;95646.00;;;;5030980;28;20205;-55
2023/06/14 04:59:44;;;;;;;1.33;1.33;;;;;12.40;95650.00;;;;5027767;28;20199;-56
2023/06/14 05:02:12;;;;;;;1.50;1.33;;;;;12.50;95656.00;;;;5030205;28;20220;-55
2023/06/14 05:04:40;;;;;;;2.47;1.93;;;;;12.50;95669.00;;;;5030470;28;20256;-58
2023/06/14 05:07:10;;;;;;;1.13;1.13;;;;;12.50;95662.00;;;;5030202;28;20287;-56
2023/06/14 05:09:37;;;;;;;2.40;1.73;;;;;12.60;95663.00;;;;5030917;28;20205;-56
2023/06/14 05:12:07;;;;;;;1.10;1.10;;;;;12.30;95662.00;;;;5029227;28;20243;-55
2023/06/14 05:14:35;;;;;;;0.97;0.97;;;;;12.20;95667.00;;;;5030469;28;20243;-55
2023/06/14 05:17:03;;;;;;;1.40;1.40;;;;;12.40;95663.00;;;;5030273;28;20208;-55
2023/06/14 05:19:30;;;;;;;1.73;1.63;;;;;12.50;95656.00;;;;5030376;28;20224;-56
2023/06/14 05:21:57;;;;;;;1.00;1.00;;;;;12.40;95658.00;;;;5027854;28;20579;-55
2023/06/14 05:24:26;;;;;;;1.97;1.80;;;;;12.40;95660.00;;;;5030777;28;20220;-55
2023/06/14 05:26:53;;;;;;;1.30;1.30;;;;;12.60;95663.00;;;;5031853;28;20284;-55
2023/06/14 05:29:21;;;;;;;1.20;1.20;;;;;12.80;95667.00;;;;5034243;28;20193;-55
2023/06/14 05:31:48;;;;;;;1.50;1.40;;;;;12.90;95664.00;;;;5034142;28;20225;-55
2023/06/14 05:34:16;;;;;;;1.00;1.00;;;;;13.10;95663.00;;;;5033297;28;20224;-55
2023/06/14 05:36:43;;;;;;;7.37;1.57;;;;;13.20;95643.00;;;;5034227;28;20189;-55
2023/06/14 05:39:11;;;;;;;1.00;1.00;;;;;13.30;95667.00;;;;5034113;28;20208;-55
2023/06/14 05:41:39;;;;;;;2.87;2.27;;;;;13.20;95666.00;;;;5033964;28;20204;-55
2023/06/14 05:44:07;;;;;;;1.37;1.27;;;;;13.20;95672.00;;;;5034051;28;20538;-56
2023/06/14 05:46:34;;;;;;;1.77;1.67;;;;;13.40;95673.00;;;;5034254;28;20564;-55
2023/06/14 05:49:01;;;;;;;1.13;1.03;;;14.00;44.30;13.50;95671.00;;;;5034414;28;20605;-55
2023/06/14 05:51:29;;;;;;;4.73;1.20;;;14.10;45.00;13.60;95680.00;;;;5034247;28;20200;-55
2023/06/14 05:53:56;;;;;;;1.13;1.13;;;14.10;45.00;13.80;95684.00;;;;5033784;28;20192;-56
2023/06/14 05:56:23;;;;;;;1.50;1.47;;;14.20;44.90;13.80;95679.00;;;;5034273;28;20201;-56
2023/06/14 05:58:51;;;;;;;1.27;1.17;;;14.30;44.60;13.90;95689.00;;;;5032806;28;20197;-55
2023/06/14 06:01:19;;;;;;;1.90;1.63;;;14.60;43.70;14.10;95690.00;;;;5033766;28;20203;-55
2023/06/14 06:03:46;;;;;;;1.83;1.77;;;14.60;43.00;14.10;95688.00;;;;5032573;28;20207;-55
2023/06/14 06:06:13;;;;;;;1.23;1.23;;;14.60;43.90;14.30;95692.00;;;;5033340;28;20664;-55
2023/06/14 06:08:40;;;;;;;1.83;1.73;;;14.90;43.00;14.50;95687.00;;;;5033737;28;20192;-55
2023/06/14 06:11:08;;;;;;;2.30;1.27;;;15.00;42.30;14.50;95699.00;;;;5032882;28;20671;-55
2023/06/14 06:13:35;;;;;;;1.80;1.70;;;15.10;43.10;14.60;95697.00;;;;5033032;28;20243;-55
2023/06/14 06:16:05;;;;;;;1.53;1.43;;;15.20;42.90;14.60;95701.00;;;;5031608;28;20221;-55
2023/06/14 06:18:32;;;;;;;1.60;1.50;;;15.20;42.50;14.70;95692.00;;;;5033878;28;20201;-55
2023/06/14 06:20:59;;;;;;;1.27;1.20;;;15.30;42.90;15.00;95699.00;;;;5033571;28;20189;-55
2023/06/14 06:23:26;;;;;;;1.67;1.57;;;15.50;42.60;14.90;95694.00;;;;5033775;28;20193;-55
2023/06/14 06:25:53;;;;;;;1.03;0.97;;;15.50;43.40;15.20;95691.00;;;;5033698;28;20219;-55
2023/06/14 06:28:21;;;;;;;1.27;1.27;;;15.60;43.20;15.20;95692.00;;;;5033971;28;20196;-55
2023/06/14 06:30:48;;;;;;;1.10;1.10;;;15.80;43.00;15.40;95692.00;;;;5032994;28;20193;-55
2023/06/14 06:33:17;;;;;;;0.97;0.97;;;15.90;42.60;15.70;95697.00;;;;5033865;28;20661;-55
2023/06/14 06:35:44;;;;;;;1.90;1.23;;;16.20;40.50;15.70;95704.00;;;;5033089;28;20274;-55
2023/06/14 06:38:11;;;;;;;1.33;1.33;;;16.10;41.10;15.90;95705.00;;;;5028241;28;20672;-55
2023/06/14 06:40:39;;;;;;;0.77;0.77;;;16.20;40.50;15.90;95699.00;;;;5026847;28;20296;-55
2023/06/14 06:43:06;;;;;;;1.33;1.30;;;16.30;39.50;15.80;95707.00;;;;5028885;28;20685;-55
2023/06/14 06:45:33;;;;;;;1.20;1.20;;;16.50;40.20;16.10;95707.00;;;;5033187;28;20217;-55
2023/06/14 06:48:00;;;;;;;0.93;0.93;;;16.60;39.60;16.50;95706.00;;;;5033104;28;20247;-55
2023/06/14 06:50:29;;;;;;;1.93;1.83;;;16.90;39.10;16.50;95716.00;;;;5033099;28;20675;-56
2023/06/14 06:52:56;;;;;;;2.10;1.97;;;16.90;39.60;16.40;95718.00;;;;5033458;28;20252;-59
2023/06/14 06:55:23;;;;;;;1.23;1.23;;;16.90;38.30;16.80;95721.00;;;;5028419;28;20224;-56
2023/06/14 06:57:52;;;;;;;1.07;1.07;;;17.10;37.90;16.80;95725.00;;;;5026700;28;20279;-55
2023/06/14 07:00:20;;;;;;;1.10;1.10;;;17.20;37.40;17.00;95721.00;;;;5029561;28;20204;-55
2023/06/14 07:02:47;;;;;;;1.10;1.10;;;17.40;36.20;17.20;95719.00;;;;5032800;28;20197;-55
2023/06/14 07:05:14;;;;;;;1.00;1.00;;;17.50;35.40;17.30;95710.00;;;;5032963;28;20727;-55
2023/06/14 07:07:43;;;;;;;4.00;1.60;;;17.70;33.90;17.30;95714.00;;;;5033018;28;20270;-55
2023/06/14 07:10:10;;;;;;;2.37;1.23;;;17.80;33.90;17.40;95719.00;;;;5026737;28;20189;-55
2023/06/14 07:12:39;;;;;;;4.93;1.57;;;17.80;34.70;17.60;95724.00;;;;5032824;28;20234;-55
2023/06/14 07:15:08;;;;;;;1.30;1.30;;;18.00;34.20;17.80;95711.00;;;;5027874;28;20240;-57
2023/06/14 07:17:36;;;;;;;1.47;1.47;;;18.10;33.90;18.00;95718.00;;;;5027976;28;20208;-55
2023/06/14 07:20:08;;;;;;;0.77;0.77;;;18.30;33.70;18.10;95721.00;;;;5032361;28;20189;-55
2023/06/14 07:22:35;;;;;;;1.27;1.17;;;18.50;32.70;18.20;95727.00;;;;5032339;28;20188;-55
2023/06/14 07:25:03;;;;;;;0.70;0.70;;;18.60;32.60;18.40;95722.00;;;;5032144;28;20300;-56
2023/06/14 07:27:31;;;;;;;1.03;1.03;;;18.70;31.00;18.60;95718.00;;;;5032189;28;20197;-55
2023/06/14 07:29:58;;;;;;;0.80;0.80;;;19.00;30.90;18.70;95721.00;;;;5032314;28;20192;-55
2023/06/14 07:32:25;;;;;;;2.27;1.23;;;19.10;29.70;19.00;95727.00;;;;5030824;28;20228;-55
2023/06/14 07:34:52;;;;;;;0.80;0.80;;;19.30;29.90;19.00;95730.00;;;;5031857;28;20759;-55
2023/06/14 07:37:19;;;;;;;1.00;1.00;;;19.40;28.60;19.20;95733.00;;;;5032012;28;20223;-55
2023/06/14 07:39:46;;;;;;;0.73;0.73;;;19.50;28.40;19.30;95733.00;;;;5028233;28;20193;-55
2023/06/14 07:42:14;;;;;;;0.97;0.97;;;19.70;27.30;19.40;95735.00;;;;5031979;28;20751;-55
2023/06/14 07:44:42;;;;;;;2.13;1.73;;;19.80;27.90;19.50;95734.00;;;;5032011;28;20682;-55
2023/06/14 07:47:09;;;;;;;0.87;0.87;;;19.90;27.70;19.70;95742.00;;;;5032438;28;20193;-56
2023/06/14 07:49:36;;;;;;;0.90;0.90;;;20.00;27.70;19.90;95746.00;;;;5030890;28;20193;-57
2023/06/14 07:52:04;;;;;;;1.20;1.20;;;20.20;27.50;20.00;95739.00;;;;5031997;28;20197;-56
2023/06/14 07:54:32;;;;;;;1.33;1.23;;;20.30;27.10;20.00;95740.00;;;;5031182;28;20229;-56
2023/06/14 07:57:00;;;;;;;1.07;1.07;;;20.30;27.20;20.00;95742.00;;;;5032144;28;20200;-56
2023/06/14 07:59:29;;;;;;;0.90;0.90;;;20.40;26.90;20.10;95745.00;;;;5031276;28;20208;-56
2023/06/14 08:01:56;;;;;;;1.33;1.23;;;20.50;27.20;20.20;95747.00;;;;5030622;28;20196;-56
2023/06/14 08:04:24;;;;;;;1.60;1.50;;;20.50;28.20;20.10;95750.00;;;;5031329;28;20217;-56
2023/06/14 08:06:52;;;;;;;0.80;0.80;;;20.50;27.30;20.30;95751.00;;;;5031755;28;20207;-55
2023/06/14 08:09:20;;;;;;;1.23;1.13;;;20.70;28.00;20.50;95748.00;;;;5031494;28;20188;-56
2023/06/14 08:11:47;;;;;;;2.47;1.20;;;20.80;26.90;20.50;95751.00;;;;5031450;28;20199;-56
2023/06/14 08:14:14;;;;;;;0.60;0.60;;;20.90;27.00;20.50;95755.00;;;;5031323;28;20224;-56
2023/06/14 08:16:42;;;;;;;0.63;0.63;;;20.90;26.40;20.40;95755.00;;;;5030120;28;20609;-56
2023/06/14 08:19:10;;;;;;;0.90;0.90;;;20.80;26.90;20.40;95764.00;;;;5031303;28;20207;-56
2023/06/14 08:21:37;;;;;;;0.90;0.90;;;20.80;26.90;20.40;95763.00;;;;5031045;28;20197;-55
2023/06/14 08:24:05;;;;;;;1.60;1.50;;;20.80;27.00;20.60;95765.00;;;;5031507;28;20224;-57
2023/06/14 08:26:32;;;;;;;1.20;1.10;;;20.90;27.50;20.60;95766.00;;;;5029494;28;20196;-56
2023/06/14 08:28:59;;;;;;;1.00;1.00;;;21.00;26.90;20.70;95763.00;;;;5031582;28;20201;-56
2023/06/14 08:31:27;;;;;;;1.73;1.63;;;21.10;27.70;20.70;95764.00;;;;5030585;28;20189;-56
2023/06/14 08:33:56;;;;;;;1.37;1.20;;;21.20;27.60;20.90;95766.00;;;;5031201;28;20213;-56
2023/06/14 08:36:23;;;;;;;1.20;1.20;;;21.30;27.00;21.10;95762.00;;;;5029324;28;20560;-56
2023/06/14 08:38:50;;;;;;;1.37;1.33;;;21.40;28.00;21.00;95767.00;;;;5031420;28;20223;-56
2023/06/14 08:41:24;;;;;;;1.40;1.40;;;21.40;26.30;20.90;95764.00;;;;5030893;28;20205;-56
2023/06/14 08:43:51;;;;;;;1.30;1.30;;;21.30;25.40;21.00;95759.00;;;;5031480;28;20189;-56
2023/06/14 08:46:22;;;;;;;1.00;1.00;;;21.40;25.70;21.20;95764.00;;;;5030591;28;20221;-56
2023/06/14 08:48:50;;;;;;;1.27;1.27;;;21.60;25.40;21.20;95772.00;;;;5031676;28;20216;-57
2023/06/14 08:51:22;;;;;;;0.80;0.80;;;21.60;25.00;21.20;95766.00;;;;5030649;28;20192;-56
2023/06/14 08:53:57;;;;;;;0.80;0.80;;;21.60;25.40;21.50;95764.00;;;;5029908;28;20230;-57
2023/06/14 08:56:27;;;;;;;1.27;1.27;;;21.80;24.70;21.50;95771.00;;;;5031192;28;20250;-56
2023/06/14 08:58:56;;;;;;;0.90;0.90;;;21.80;24.40;21.50;95776.00;;;;5027274;28;20556;-57
2023/06/14 09:01:24;;;;;;;1.40;1.10;;;21.90;25.00;21.40;95775.00;;;;5029641;28;20192;-56
2023/06/14 09:03:51;;;;;;;0.60;0.60;;;21.80;24.50;21.60;95776.00;;;;5035904;28;20565;-56
2023/06/14 09:06:22;;;;;;;1.15;1.15;;;22.00;25.60;21.60;95773.00;;;;5034629;28;20189;-56
2023/06/14 09:08:50;;;;;;;0.75;0.75;;;22.00;24.60;21.60;95779.00;;;;5035609;28;20543;-56
2023/06/14 09:11:19;;;;;;;1.33;1.25;;;22.00;25.40;21.80;95782.00;;;;5034509;28;20192;-54
2023/06/14 09:13:48;;;;;;;1.90;1.65;;;22.10;25.40;21.70;95778.00;;;;5035201;28;20216;-57
2023/06/14 09:16:15;;;;;;;1.13;1.13;;;22.10;25.00;21.40;95781.00;;;;5034468;28;20639;-57
2023/06/14 09:18:47;;;;;;;1.60;1.50;;;22.00;24.30;21.40;95786.00;;;;5035424;28;20555;-54
2023/06/14 09:21:16;;;;;;;1.13;1.13;;;21.80;24.80;21.60;95778.00;;;;5034698;28;20542;-54
2023/06/14 09:23:48;;;;;;;0.88;0.88;;;22.00;25.40;21.70;95779.00;;;;5034402;28;20264;-54
2023/06/14 09:26:17;;;;;;;0.68;0.68;;;22.10;26.10;21.90;95783.00;;;;5034716;28;20197;-54
2023/06/14 09:28:46;;;;;;;1.23;1.08;;;22.30;24.80;22.10;95789.00;;;;5034515;28;20201;-56
2023/06/14 09:31:14;;;;;;;0.95;0.95;;;22.40;26.60;21.90;95781.00;;;;5034474;28;20189;-55
2023/06/14 09:33:47;;;;;;;0.85;0.85;;;22.40;25.50;22.10;95788.00;;;;5034291;28;20221;-56
2023/06/14 09:36:18;;;;;;;0.82;0.82;;;22.40;25.70;22.40;95790.00;;;;5034509;28;20224;-55
2023/06/14 09:38:55;;;;;;;0.75;0.75;;;22.60;25.90;22.30;95793.00;;;;5034344;28;20659;-56
2023/06/14 09:41:31;;;;;;;10.63;1.63;;;22.60;25.40;22.40;95769.00;;;;5033032;28;20709;-56
2023/06/14 09:44:00;;;;;;;1.35;1.30;;;22.70;25.40;22.50;95795.00;;;;5034147;28;20191;-55
2023/06/14 09:46:29;;;;;;;1.20;1.20;;;22.90;24.40;22.50;95796.00;;;;5034250;28;20220;-56
2023/06/14 09:48:56;;;;;;;0.90;0.90;;;22.80;24.50;22.50;95790.00;;;;5034281;28;20189;-55
2023/06/14 09:51:24;;;;;;;1.80;1.70;;;22.80;23.60;22.70;95795.00;;;;5033907;28;20272;-55
2023/06/14 09:53:54;;;;;;;0.82;0.82;;;23.00;23.40;22.80;95794.00;;;;5033758;28;20231;-55
2023/06/14 09:56:29;;;;;;;1.02;1.02;;;23.10;22.80;23.00;95792.00;;;;5034246;28;20196;-55
2023/06/14 09:58:58;;;;;;;1.85;1.73;;;23.30;21.20;23.10;95789.00;;;;5033547;28;20189;-56
2023/06/14 10:01:27;;;;;;;1.13;1.13;;;23.40;21.30;22.90;95788.00;;;;5034174;28;20224;-55
2023/06/14 10:04:01;;;;;;;0.68;0.68;;;;;23.30;95790.00;;;;5033502;28;20262;-56
2023/06/14 10:06:30;;;;;;;0.80;0.80;;;;;23.50;95786.00;;;;5032532;28;20647;-55
2023/06/14 10:09:00;;;;;;;1.58;1.42;;;;;23.50;95783.00;;;;5033848;28;20201;-56
2023/06/14 10:11:29;;;;;;;0.80;0.80;;;;;23.30;95786.00;;;;5033683;28;20197;-57
2023/06/14 10:13:58;;;;;;;3.97;1.70;;;;;23.50;95795.00;;;;5033144;28;20220;-56
2023/06/14 10:16:30;;;;;;;0.90;0.90;;;;;23.30;95789.00;;;;5033346;28;20197;-56
2023/06/14 10:19:07;;;;;;;1.08;1.08;;;;;23.00;95784.00;;;;5034060;28;20189;-57
2023/06/14 10:21:42;;;;;;;0.90;0.90;;;;;23.20;95782.00;;;;5031269;28;20563;-57
2023/06/14 10:24:16;;;;;;;1.15;1.10;;;;;23.20;95780.00;;;;5032792;28;20220;-57
2023/06/14 10:26:52;;;;;;;1.10;1.10;;;;;23.40;95794.00;;;;5033124;28;20639;-57
2023/06/14 10:29:20;;;;;;;0.82;0.82;;;;;23.10;95792.00;;;;5034004;28;20192;-56
2023/06/14 10:31:49;;;;;;;0.93;0.88;;;;;23.20;95795.00;;;;5033472;28;20189;-56
2023/06/14 10:34:24;;;;;;;0.98;0.98;;;;;23.00;95799.00;;;;5031798;28;20717;-57
2023/06/14 10:37:07;;;;;;;1.50;1.40;;;;;23.00;95775.00;;;;5033502;28;20694;-58
2023/06/14 10:39:41;;;;;;;1.40;1.30;;;;;23.10;95796.00;;;;5032278;28;20223;-55
2023/06/14 10:42:09;;;;;;;0.88;0.88;;;;;22.90;95791.00;;;;5028789;28;20271;-57
2023/06/14 10:44:50;;;;;;;1.75;1.42;;;;;23.10;95781.00;;;;5033519;28;20209;-57
2023/06/14 10:47:26;;;;;;;0.90;0.90;;;;;23.40;95784.00;;;;5032807;28;20189;-56
2023/06/14 10:49:55;;;;;;;1.52;1.25;;;;;23.90;95792.00;;;;5033144;28;20215;-55
2023/06/14 10:52:27;;;;;;;0.93;0.93;;;24.10;19.10;24.10;95778.00;;;;5032873;28;20276;-56
2023/06/14 10:55:12;;;;;;;0.77;0.77;;;24.30;18.60;24.30;95778.00;;;;5033045;28;20303;-57
2023/06/14 10:57:42;;;;;;;36.13;2.22;;;24.50;18.70;24.50;95783.00;;;;5033040;28;20224;-57
2023/06/14 11:00:16;;;;;;;1.08;1.08;;;24.70;17.70;24.70;95775.00;;;;5033065;28;20754;-56
2023/06/14 11:03:41;;;;;;;0.80;0.80;;;24.80;17.80;24.90;95790.00;;;;5032891;28;20188;-56
2023/06/14 11:06:15;;;;;;;1.05;1.05;;;25.00;19.10;24.20;95793.00;;;;5028086;28;20350;-57
2023/06/14 11:09:39;;;;;;;1.02;1.00;;;24.70;18.00;23.90;95792.00;;;;5033241;28;20188;-56
2023/06/14 11:12:11;;;;;;;1.48;1.38;;;24.40;18.20;23.60;95802.00;;;;5031168;28;20671;-55
2023/06/14 11:14:39;;;;;;;0.98;0.98;;;24.10;18.60;23.80;95784.00;;;;5032286;28;20225;-55
2023/06/14 11:17:07;;;;;;;1.00;1.00;;;24.10;19.10;24.10;95790.00;;;;5032838;28;20193;-56
2023/06/14 11:19:34;;;;;;;1.10;1.10;;;24.30;19.30;24.70;95774.00;;;;5033005;28;20192;-55
2023/06/14 11:22:01;;;;;;;0.93;0.93;;;24.80;19.30;24.90;95774.00;;;;5032293;28;20345;-56
2023/06/14 11:24:29;;;;;;;0.93;0.93;;;25.10;19.50;25.10;95779.00;;;;5031859;28;20213;-56
2023/06/14 11:26:57;;;;;;;1.13;1.13;;;25.40;18.50;25.10;95775.00;;;;5032637;28;20193;-54
2023/06/14 11:29:26;;;;;;;1.45;1.35;;;25.30;18.60;25.30;95776.00;;;;5032321;28;20220;-55
2023/06/14 11:31:53;;;;;;;0.85;0.85;;;25.50;19.10;25.30;95769.00;;;;5032310;28;20221;-54